PABR METAR and TAF weather

Enter ICAO airport designator
Station Type Date Time Source
PABR METAR 2019/12/07 06:53 UTC NOAA

PABR 070653Z 06004KT 6SM BR OVC012 M19/M21 A2999 RMK AO2 SLP158 T11891211


Station Type Date Time Source
PABR Decoded METAR 2019/12/07 06:53 UTC NOAA

POST ROGERS MEMORIAL AIRPORT, AK, United States (PABR) 71-17N 156-46W 10M
Dec 07, 2019 - 01:53 AM EST / 2019.12.07 0653 UTC
Wind: from the ENE (060 degrees) at 5 MPH (4 KT):0
Visibility: 6 mile(s):0
Sky conditions: overcast
Weather: mist
Temperature: -2.0 F (-18.9 C)
Windchill: -13 F (-25 C):2
Dew Point: -6.0 F (-21.1 C)
Relative Humidity: 82%
Pressure (altimeter): 29.99 in. Hg (1015 hPa)
ob: PABR 070653Z 06004KT 6SM BR OVC012 M19/M21 A2999 RMK AO2 SLP158 T11891211
cycle: 7

Station Type Date Time Source
PABR TAF 2019/12/07 06:22 UTC NOAA

TAF PABR 070520Z 0706/0806 09010KT 6SM BR OVC019
FM080000 08015KT 4SM BR OVC015

Example: see airport list